Island Chief — WDA7043 — position and weather

sailwx.info

Track history (hours):
 
Tides and Currents Weather Stations Pressure Air Temp Water Temp Dewpoint Dewpoint Depression Visibility Wind Speed Wind Dir Waves Ship Positions

Island Chief

Owner: Island Tug and Barge, SEATTLE, WA. More information available from US FCC via Universal Licensing System and Coast Guard Vessel Documentation Center.

Last reported at 2017-Dec-18 07:00 UTC. Time now 2017-Dec-18 07:15 UTC.
Position N 47°34' W 122°21'.

Length 21 m; draft 3 m.

Type: Towing. MMSI: 365798606.

Date/timePositionNaut miles runAvg speedWind from/ knotsBaromVisibWave heightAir tempDewpointWater temp
2017-Dec-18 07:00N 47°34' W 122°21'0 0.0
2017-Dec-18 06:30N 47°34' W 122°21'0 0.0
2017-Dec-18 06:00N 47°34' W 122°21'0 0.0
2017-Dec-18 05:30N 47°34' W 122°21'0 0.0
2017-Dec-18 05:00N 47°34' W 122°21'0 0.0
2017-Dec-18 04:30N 47°34' W 122°21'0 0.0
2017-Dec-18 04:00N 47°34' W 122°21'0 0.0
2017-Dec-18 03:31N 47°34' W 122°21'0 0.0
2017-Dec-18 03:00N 47°34' W 122°21'0 0.0
2017-Dec-18 02:30N 47°34' W 122°21'0 0.0
2017-Dec-18 02:00N 47°34' W 122°21'0 0.0
2017-Dec-18 01:30N 47°34' W 122°21'0 0.0
2017-Dec-18 01:00N 47°34' W 122°21'0 0.0
2017-Dec-18 00:30N 47°34' W 122°21'0 0.0
2017-Dec-18 00:00N 47°34' W 122°21'0 0.0
2017-Dec-17 23:30N 47°34' W 122°21'0 0.0
2017-Dec-17 23:00N 47°34' W 122°21'0 0.0
2017-Dec-17 22:30N 47°34' W 122°21'1 1.9
2017-Dec-17 22:00N 47°35' W 122°22'0 0.5
2017-Dec-17 21:30N 47°35' W 122°22'1 1.8
2017-Dec-17 21:00N 47°34' W 122°21'0 0.0
2017-Dec-17 20:30N 47°34' W 122°21'0 0.0
2017-Dec-17 20:00N 47°34' W 122°21'0 0.0
2017-Dec-17 19:27N 47°34' W 122°21'0 0.0
2017-Dec-17 19:00N 47°34' W 122°21'0 0.0
2017-Dec-17 18:30N 47°34' W 122°21'0 0.0
2017-Dec-17 17:59N 47°34' W 122°21'0 0.0
2017-Dec-17 17:30N 47°34' W 122°21'0 0.0
2017-Dec-17 17:00N 47°34' W 122°21'0 0.0
2017-Dec-17 16:30N 47°34' W 122°21'0 0.0
2017-Dec-17 16:00N 47°34' W 122°21'0 0.0
2017-Dec-17 15:30N 47°34' W 122°21'0 0.0
2017-Dec-17 15:00N 47°34' W 122°21'0 0.0
2017-Dec-17 14:30N 47°34' W 122°21'0 0.0
2017-Dec-17 14:00N 47°34' W 122°21'0 0.0
2017-Dec-17 13:30N 47°34' W 122°21'0 0.0
2017-Dec-17 13:00N 47°34' W 122°21'0 0.0
2017-Dec-17 12:30N 47°34' W 122°21'0 0.0
2017-Dec-17 12:00N 47°34' W 122°21'0 0.0
2017-Dec-17 11:30N 47°34' W 122°21'0 0.0
2017-Dec-17 11:00N 47°34' W 122°21'0 0.0
2017-Dec-17 10:30N 47°34' W 122°21'0 0.0
2017-Dec-17 10:00N 47°34' W 122°21'0 0.0
2017-Dec-17 09:30N 47°34' W 122°21'0 0.0
2017-Dec-17 09:00N 47°34' W 122°21'0 0.0
2017-Dec-17 08:30N 47°34' W 122°21'0 0.0
2017-Dec-17 08:00N 47°34' W 122°21'0 0.0
2017-Dec-17 07:30N 47°34' W 122°21'0 0.0
2017-Dec-17 07:00N 47°34' W 122°21'0 0.0
2017-Dec-17 06:30N 47°34' W 122°21'0 0.0
2017-Dec-17 06:00N 47°34' W 122°21'0 0.0
2017-Dec-17 05:30N 47°34' W 122°21'0 0.0
2017-Dec-17 05:00N 47°34' W 122°21'0 0.0
2017-Dec-17 04:30N 47°34' W 122°21'0 0.0
2017-Dec-17 04:00N 47°34' W 122°21'0 0.0
2017-Dec-17 03:30N 47°34' W 122°21'0 0.0
2017-Dec-17 03:00N 47°34' W 122°21'0 0.0
2017-Dec-17 02:30N 47°34' W 122°21'0 0.0
2017-Dec-17 02:00N 47°34' W 122°21'0 0.0
2017-Dec-17 01:30N 47°34' W 122°21'0 0.0
2017-Dec-17 01:00N 47°34' W 122°21'0 0.0
2017-Dec-17 00:30N 47°34' W 122°21'0 0.0
2017-Dec-16 23:48N 47°34' W 122°21'0 0.0
2017-Dec-16 23:29N 47°34' W 122°21'3 6.6
2017-Dec-16 23:00N 47°32' W 122°19'0 0.8
2017-Dec-16 22:30N 47°32' W 122°19'4 8.4
2017-Dec-16 22:00N 47°36' W 122°21'1 2.9
2017-Dec-16 21:30N 47°34' W 122°21'3 5.7
2017-Dec-16 21:00N 47°32' W 122°19'1 2.9
2017-Dec-16 20:30N 47°31' W 122°18'0 0.0
2017-Dec-16 20:00N 47°31' W 122°18'3 5.3
2017-Dec-16 19:30N 47°33' W 122°20'2 4.9
2017-Dec-16 19:00N 47°35' W 122°22'2 3.9
2017-Dec-16 18:27N 47°33' W 122°21'0 0.0
2017-Dec-16 17:59N 47°33' W 122°21'0 0.2
2017-Dec-16 17:30N 47°33' W 122°21'0 0.0
2017-Dec-16 17:00N 47°33' W 122°21'0 0.0
2017-Dec-16 16:28N 47°33' W 122°21'0 0.0
2017-Dec-16 16:00N 47°33' W 122°21'0 0.0
2017-Dec-16 15:29N 47°33' W 122°21'0 0.0
2017-Dec-16 14:59N 47°33' W 122°21'0 0.0
2017-Dec-16 14:30N 47°33' W 122°21'1 1.0
2017-Dec-16 13:53N 47°34' W 122°21'1 1.5
2017-Dec-16 13:30N 47°34' W 122°21'0 0.0
2017-Dec-16 12:57N 47°34' W 122°21'0 0.0
2017-Dec-16 12:30N 47°34' W 122°21'0 0.0
2017-Dec-16 12:00N 47°34' W 122°21'0 0.0
2017-Dec-16 11:30N 47°34' W 122°21'0 0.0
2017-Dec-16 11:00N 47°34' W 122°21'0 0.0
2017-Dec-16 10:30N 47°34' W 122°21'0 0.0
2017-Dec-16 10:00N 47°34' W 122°21'0 0.0
2017-Dec-16 09:30N 47°34' W 122°21'2 3.5
2017-Dec-16 09:00N 47°33' W 122°20'0 0.2
2017-Dec-16 08:30N 47°33' W 122°20'1 2.3
2017-Dec-16 07:59N 47°34' W 122°21'2 3.8
2017-Dec-16 07:30N 47°35' W 122°22'1 2.4
2017-Dec-16 06:59N 47°34' W 122°21'0 0.0
2017-Dec-16 06:30N 47°34' W 122°21'0 0.0
2017-Dec-16 05:59N 47°34' W 122°21'0 0.3
2017-Dec-16 05:30N 47°34' W 122°21'1 2.9
2017-Dec-16 05:00N 47°36' W 122°23'3 6.8
2017-Dec-16 04:30N 47°38' W 122°26'2 3.8
2017-Dec-16 04:00N 47°40' W 122°24'1 1.2
2017-Dec-16 03:30N 47°40' W 122°23'3 6.0
2017-Dec-16 03:00N 47°39' W 122°19'3 7.0
2017-Dec-16 02:30N 47°41' W 122°15'4 8.3
2017-Dec-16 01:59N 47°45' W 122°16'1 1.1
2017-Dec-16 01:29N 47°45' W 122°15'3 5.0
2017-Dec-16 00:56N 47°43' W 122°16'3 6.3
2017-Dec-16 00:30N 47°40' W 122°15'3 5.6
2017-Dec-16 00:00N 47°39' W 122°19'2 4.6
2017-Dec-15 23:30N 47°40' W 122°22'1 2.5
2017-Dec-15 23:00N 47°40' W 122°24'1 1.3
2017-Dec-15 22:30N 47°40' W 122°25'2 4.4
2017-Dec-15 22:00N 47°39' W 122°27'4 7.3
2017-Dec-15 21:30N 47°35' W 122°26'3 6.8
2017-Dec-15 21:00N 47°32' W 122°27'4 7.3
2017-Dec-15 20:30N 47°29' W 122°30'4 7.5
2017-Dec-15 20:00N 47°25' W 122°32'4 7.5
2017-Dec-15 19:30N 47°21' W 122°32'4 6.8
2017-Dec-15 18:55N 47°17' W 122°32'3 6.4
2017-Dec-15 18:30N 47°15' W 122°35'8 2.6
2017-Dec-15 15:34N 47°08' W 122°39'0 0.0
2017-Dec-15 15:24N 47°08' W 122°39'0 0.0
2017-Dec-15 08:42N 47°08' W 122°39'1 3.4
2017-Dec-15 08:26N 47°09' W 122°39'4 7.8
2017-Dec-15 07:58N 47°12' W 122°36'511.3
2017-Dec-15 07:30N 47°17' W 122°33'5 9.1
2017-Dec-15 07:00N 47°21' W 122°32'4 7.6
2017-Dec-15 06:30N 47°25' W 122°32'4 7.3
2017-Dec-15 06:00N 47°29' W 122°30'3 6.5
2017-Dec-15 05:30N 47°32' W 122°28'4 7.6
2017-Dec-15 05:00N 47°36' W 122°28'4 7.7
2017-Dec-15 04:30N 47°39' W 122°27'2 4.7
2017-Dec-15 04:00N 47°40' W 122°24'6 4.0
2017-Dec-15 02:29N 47°42' W 122°15'2 1.2
2017-Dec-15 00:59N 47°44' W 122°16'3 6.3
2017-Dec-15 00:30N 47°41' W 122°14'29 4.8
2017-Dec-14 18:27N 47°15' W 122°34'7 1.0
2017-Dec-14 10:57N 47°09' W 122°38'3 6.2
2017-Dec-14 10:29N 47°11' W 122°37'5 9.6
2017-Dec-14 10:00N 47°15' W 122°34'5 9.7
2017-Dec-14 09:30N 47°20' W 122°33'4 8.2
2017-Dec-14 09:00N 47°24' W 122°32'4 8.5
2017-Dec-14 08:30N 47°28' W 122°31'4 8.9
2017-Dec-14 08:00N 47°32' W 122°28'5 9.6
2017-Dec-14 07:30N 47°37' W 122°28'4 8.1
2017-Dec-14 07:00N 47°41' W 122°25'2 3.2
2017-Dec-14 06:30N 47°40' W 122°23'4 5.8
2017-Dec-14 05:45N 47°39' W 122°17'2 7.5
2017-Dec-14 05:30N 47°40' W 122°15'4 7.3
2017-Dec-14 05:00N 47°44' W 122°16'2 3.2
2017-Dec-14 04:30N 47°45' W 122°16'0 0.5
2017-Dec-14 04:00N 47°45' W 122°16'3 5.5
2017-Dec-14 03:29N 47°42' W 122°15'3 6.0
2017-Dec-14 03:00N 47°39' W 122°16'3 5.3
2017-Dec-14 02:30N 47°39' W 122°20'2 4.4
2017-Dec-14 02:00N 47°40' W 122°23'0 0.6
2017-Dec-14 01:30N 47°40' W 122°23'0 0.0
2017-Dec-14 01:00N 47°40' W 122°23'0 0.8
2017-Dec-14 00:30N 47°40' W 122°24'1 1.0
2017-Dec-14 00:00N 47°40' W 122°24'1 2.3
2017-Dec-13 23:30N 47°40' W 122°26'3 6.6
2017-Dec-13 23:00N 47°37' W 122°27'3 6.4
2017-Dec-13 22:30N 47°34' W 122°26'3 6.3
2017-Dec-13 22:00N 47°31' W 122°29'3 6.6
2017-Dec-13 21:30N 47°28' W 122°31'3 6.4
2017-Dec-13 21:00N 47°25' W 122°32'3 6.1
2017-Dec-13 20:30N 47°22' W 122°32'3 6.0
2017-Dec-13 20:00N 47°19' W 122°33'2 5.0
2017-Dec-13 19:30N 47°16' W 122°33'8 1.0
2017-Dec-13 11:14N 47°09' W 122°39'2 7.7
2017-Dec-13 11:00N 47°11' W 122°38'4 7.8
2017-Dec-13 10:30N 47°14' W 122°35'4 7.9
2017-Dec-13 09:57N 47°18' W 122°33'4 8.1
2017-Dec-13 09:30N 47°22' W 122°32'4 7.9
2017-Dec-13 09:00N 47°26' W 122°32'4 8.3
2017-Dec-13 08:30N 47°30' W 122°30'4 9.0
2017-Dec-13 08:00N 47°34' W 122°28'5 9.1
2017-Dec-13 07:30N 47°39' W 122°28'3 6.0
2017-Dec-13 07:00N 47°40' W 122°24'1 2.8
2017-Dec-13 06:30N 47°39' W 122°22'2 4.4
2017-Dec-13 06:00N 47°39' W 122°19'3 6.9
2017-Dec-13 05:30N 47°41' W 122°14'4 8.2
2017-Dec-13 05:00N 47°45' W 122°16'0 0.9
2017-Dec-13 04:30N 47°45' W 122°16'0 0.2
2017-Dec-13 04:00N 47°45' W 122°16'3 6.1
2017-Dec-13 03:30N 47°42' W 122°15'3 6.3
2017-Dec-13 03:00N 47°39' W 122°16'2 4.9
2017-Dec-13 02:30N 47°39' W 122°20'2 4.3
2017-Dec-13 02:00N 47°40' W 122°23'1 1.2
2017-Dec-13 01:30N 47°40' W 122°24'0 0.0
2017-Dec-13 01:00N 47°40' W 122°24'0 0.0
2017-Dec-13 00:30N 47°40' W 122°24'0 0.0
2017-Dec-13 00:00N 47°40' W 122°24'0 0.4
2017-Dec-12 23:30N 47°40' W 122°24'0 1.0
2017-Dec-12 23:00N 47°40' W 122°24'2 4.6
2017-Dec-12 22:30N 47°39' W 122°27'4 7.4
2017-Dec-12 22:00N 47°35' W 122°26'3 7.0
2017-Dec-12 21:30N 47°32' W 122°28'4 7.5
2017-Dec-12 21:00N 47°28' W 122°31'4 7.4
2017-Dec-12 20:30N 47°25' W 122°32'4 7.0
2017-Dec-12 20:00N 47°21' W 122°33'3 6.4
2017-Dec-12 19:28N 47°18' W 122°33'3 5.9
2017-Dec-12 19:00N 47°15' W 122°34'8 5.9
2017-Dec-12 17:42N 47°08' W 122°39'0 0.0
2017-Dec-12 17:26N 47°08' W 122°39'0 0.0
2017-Dec-12 15:48N 47°08' W 122°39'0 0.0
2017-Dec-12 13:21N 47°08' W 122°39'1 3.3
2017-Dec-12 13:00N 47°09' W 122°39'4 7.7
2017-Dec-12 12:30N 47°12' W 122°36'3 6.9
2017-Dec-12 12:00N 47°16' W 122°34'3 6.3
2017-Dec-12 11:30N 47°19' W 122°33'4 7.6
2017-Dec-12 11:00N 47°22' W 122°32'4 7.3
2017-Dec-12 10:30N 47°26' W 122°32'4 7.7
2017-Dec-12 10:00N 47°30' W 122°30'4 8.0
2017-Dec-12 09:30N 47°33' W 122°27'4 7.9
2017-Dec-12 09:00N 47°36' W 122°23'2 3.7
2017-Dec-12 08:30N 47°34' W 122°21'1 2.4
2017-Dec-12 08:00N 47°36' W 122°22'4 7.3
2017-Dec-12 07:30N 47°38' W 122°26'2 4.3
2017-Dec-12 07:00N 47°40' W 122°24'2 3.2
2017-Dec-12 06:30N 47°39' W 122°22'3 5.0
2017-Dec-12 06:00N 47°39' W 122°19'3 6.5
2017-Dec-12 05:30N 47°41' W 122°15'4 7.3
2017-Dec-12 05:00N 47°44' W 122°16'1 2.4
2017-Dec-12 04:30N 47°45' W 122°16'0 0.7
2017-Dec-12 04:00N 47°45' W 122°16'3 5.7
2017-Dec-12 03:29N 47°42' W 122°15'3 6.1
2017-Dec-12 03:00N 47°39' W 122°16'2 5.0
2017-Dec-12 02:30N 47°39' W 122°20'2 4.5
2017-Dec-12 02:00N 47°40' W 122°23'1 1.1
2017-Dec-12 01:30N 47°40' W 122°24'0 0.0
2017-Dec-12 01:00N 47°40' W 122°24'0 0.0
2017-Dec-12 00:30N 47°40' W 122°24'1 1.2
2017-Dec-12 00:00N 47°40' W 122°24'2 4.2
2017-Dec-11 23:30N 47°39' W 122°27'3 7.0
2017-Dec-11 23:00N 47°35' W 122°26'3 6.6
2017-Dec-11 22:30N 47°32' W 122°28'4 7.5
2017-Dec-11 22:00N 47°29' W 122°30'4 7.4
2017-Dec-11 21:30N 47°25' W 122°32'4 7.1
2017-Dec-11 21:00N 47°22' W 122°32'4 6.7
2017-Dec-11 20:26N 47°18' W 122°32'3 7.2
2017-Dec-11 20:00N 47°15' W 122°34'3 6.2
2017-Dec-11 19:30N 47°12' W 122°36'4 5.0
2017-Dec-11 18:36N 47°08' W 122°39'0 0.0
2017-Dec-11 18:26N 47°08' W 122°39'0 0.0
2017-Dec-11 17:24N 47°08' W 122°39'0 0.0
2017-Dec-11 16:20N 47°08' W 122°39'0 0.0
2017-Dec-11 16:00N 47°08' W 122°39'0 0.0
2017-Dec-11 15:27N 47°08' W 122°39'1 1.3
2017-Dec-11 14:38N 47°09' W 122°39'1 7.1
2017-Dec-11 14:30N 47°10' W 122°38'4 7.4
2017-Dec-11 14:00N 47°13' W 122°35'4 7.4
2017-Dec-11 13:29N 47°17' W 122°33'3 6.4
2017-Dec-11 13:00N 47°20' W 122°33'3 6.3
2017-Dec-11 12:30N 47°23' W 122°32'3 6.0
2017-Dec-11 12:00N 47°26' W 122°32'3 6.2
2017-Dec-11 11:30N 47°29' W 122°30'3 6.5
2017-Dec-11 11:00N 47°32' W 122°28'3 6.9
2017-Dec-11 10:30N 47°35' W 122°26'2 4.7
2017-Dec-11 10:00N 47°35' W 122°23'1 2.8
2017-Dec-11 09:30N 47°34' W 122°21'0 0.0
2017-Dec-11 09:00N 47°34' W 122°21'0 0.0
2017-Dec-11 08:30N 47°34' W 122°21'0 0.0
2017-Dec-11 08:00N 47°34' W 122°21'0 0.0
2017-Dec-11 07:30N 47°34' W 122°21'0 0.0
2017-Dec-11 07:00N 47°34' W 122°21'0 0.0
2017-Dec-11 06:30N 47°34' W 122°21'0 0.0
2017-Dec-11 06:00N 47°34' W 122°21'0 0.0
2017-Dec-11 05:30N 47°34' W 122°21'0 0.0
2017-Dec-11 05:00N 47°34' W 122°21'0 0.0
2017-Dec-11 04:30N 47°34' W 122°21'0 0.0
2017-Dec-11 04:00N 47°34' W 122°21'0 0.0
2017-Dec-11 03:30N 47°34' W 122°21'0 0.0
2017-Dec-11 03:00N 47°34' W 122°21'0 0.0
2017-Dec-11 02:30N 47°34' W 122°21'0 0.0
2017-Dec-11 02:00N 47°34' W 122°21'0 0.0
2017-Dec-11 01:30N 47°34' W 122°21'0 0.0
2017-Dec-11 01:00N 47°34' W 122°21'0 0.0
2017-Dec-11 00:30N 47°34' W 122°21'0 0.0
2017-Dec-11 00:00N 47°34' W 122°21'0 0.0
2017-Dec-10 23:30N 47°34' W 122°21'0 0.0
2017-Dec-10 23:00N 47°34' W 122°21'0 0.0
2017-Dec-10 22:30N 47°34' W 122°21'0 0.0
2017-Dec-10 22:00N 47°34' W 122°21'0 0.0
2017-Dec-10 21:30N 47°34' W 122°21'0 0.0
2017-Dec-10 21:00N 47°34' W 122°21'0 0.0
2017-Dec-10 20:30N 47°34' W 122°21'0 0.0
2017-Dec-10 20:00N 47°34' W 122°21'0 0.0
2017-Dec-10 19:30N 47°34' W 122°21'0 0.0
2017-Dec-10 18:59N 47°34' W 122°21'0 0.0
2017-Dec-10 18:28N 47°34' W 122°21'0 0.0
2017-Dec-10 18:00N 47°34' W 122°21'0 0.0
2017-Dec-10 17:29N 47°34' W 122°21'0 0.0
2017-Dec-10 17:00N 47°34' W 122°21'0 0.0
2017-Dec-10 16:30N 47°34' W 122°21'0 0.0
2017-Dec-10 16:00N 47°34' W 122°21'0 0.0
2017-Dec-10 15:30N 47°34' W 122°21'0 0.0
2017-Dec-10 15:00N 47°34' W 122°21'0 0.0
2017-Dec-10 14:30N 47°34' W 122°21'0 0.0
2017-Dec-10 14:01N 47°34' W 122°21'0 0.0
2017-Dec-10 13:30N 47°34' W 122°21'0 0.0
2017-Dec-10 13:00N 47°34' W 122°21'0 0.0
2017-Dec-10 12:30N 47°34' W 122°21'0 0.0
2017-Dec-10 12:00N 47°34' W 122°21'0 0.0
2017-Dec-10 11:30N 47°34' W 122°21'0 0.0
2017-Dec-10 11:00N 47°34' W 122°21'0 0.0
2017-Dec-10 10:30N 47°34' W 122°21'0 0.0
2017-Dec-10 10:00N 47°34' W 122°21'0 0.0
2017-Dec-10 09:30N 47°34' W 122°21'0 0.0
2017-Dec-10 09:00N 47°34' W 122°21'0 0.0
2017-Dec-10 08:30N 47°34' W 122°21'0 0.0
2017-Dec-10 08:00N 47°34' W 122°21'0 0.0
2017-Dec-10 07:30N 47°34' W 122°21'0 0.0
2017-Dec-10 07:00N 47°34' W 122°21'0 0.0
2017-Dec-10 06:30N 47°34' W 122°21'0 0.0
2017-Dec-10 06:00N 47°34' W 122°21'0 0.0
2017-Dec-10 05:30N 47°34' W 122°21'0 0.0
2017-Dec-10 05:00N 47°34' W 122°21'0 0.0
2017-Dec-10 04:30N 47°34' W 122°21'0 0.0
2017-Dec-10 04:00N 47°34' W 122°21'1 1.7
2017-Dec-10 03:30N 47°35' W 122°22'4 7.1
2017-Dec-10 03:00N 47°38' W 122°25'2 4.8
2017-Dec-10 02:30N 47°40' W 122°24'1 2.4
2017-Dec-10 02:00N 47°40' W 122°23'3 5.2
2017-Dec-10 01:30N 47°39' W 122°19'3 6.5
2017-Dec-10 01:00N 47°40' W 122°15'4 8.1
2017-Dec-10 00:30N 47°44' W 122°16'1 1.9
2017-Dec-10 00:00N 47°45' W 122°16'0 0.8
2017-Dec-09 23:30N 47°45' W 122°16'3 6.7
2017-Dec-09 22:59N 47°42' W 122°15'3 6.3
2017-Dec-09 22:30N 47°39' W 122°17'3 5.0
2017-Dec-09 22:00N 47°39' W 122°20'3 5.2
2017-Dec-09 21:30N 47°40' W 122°24'1 2.7
2017-Dec-09 21:00N 47°40' W 122°26'3 6.5
2017-Dec-09 20:30N 47°37' W 122°25'3 5.4
2017-Dec-09 20:00N 47°35' W 122°22'1 2.5
2017-Dec-09 19:25N 47°34' W 122°21'0 0.3
2017-Dec-09 19:00N 47°34' W 122°21'1 2.3
2017-Dec-09 18:30N 47°35' W 122°22'1 2.0
2017-Dec-09 18:00N 47°34' W 122°21'3 5.2
2017-Dec-09 17:30N 47°32' W 122°19'1 2.5
2017-Dec-09 17:00N 47°31' W 122°18'0 0.0
2017-Dec-09 16:29N 47°31' W 122°18'0 0.0
2017-Dec-09 16:00N 47°31' W 122°18'0 0.0
2017-Dec-09 15:30N 47°31' W 122°18'0 0.0
2017-Dec-09 15:00N 47°31' W 122°18'0 0.0
2017-Dec-09 14:27N 47°31' W 122°18'0 0.0
2017-Dec-09 14:00N 47°31' W 122°18'0 0.0
2017-Dec-09 13:30N 47°31' W 122°18'0 0.0
2017-Dec-09 13:00N 47°31' W 122°18'1 1.0
2017-Dec-09 12:30N 47°31' W 122°18'3 5.3
2017-Dec-09 12:00N 47°33' W 122°21'0 0.7
2017-Dec-09 11:30N 47°34' W 122°21'0 0.7
2017-Dec-09 11:00N 47°34' W 122°21'0 0.8
2017-Dec-09 10:30N 47°34' W 122°21'0 0.0
2017-Dec-09 10:00N 47°34' W 122°21'0 0.0
2017-Dec-09 09:30N 47°34' W 122°21'0 0.0
2017-Dec-09 09:00N 47°34' W 122°21'0 0.0
2017-Dec-09 08:30N 47°34' W 122°21'1 1.5
2017-Dec-09 08:00N 47°35' W 122°22'1 1.8
2017-Dec-09 07:30N 47°36' W 122°23'3 6.0
2017-Dec-09 07:00N 47°34' W 122°26'4 7.5
2017-Dec-09 06:30N 47°31' W 122°29'4 7.3
2017-Dec-09 06:00N 47°27' W 122°31'4 7.4
2017-Dec-09 05:30N 47°24' W 122°32'4 7.4
2017-Dec-09 05:00N 47°20' W 122°33'3 6.1
2017-Dec-09 04:30N 47°17' W 122°32'4 5.7
2017-Dec-09 03:50N 47°14' W 122°35'4 6.6
2017-Dec-09 03:18N 47°11' W 122°38'3 5.2
2017-Dec-09 02:46N 47°08' W 122°39'0 0.0
2017-Dec-09 02:28N 47°08' W 122°39'0 0.0
2017-Dec-09 02:00N 47°08' W 122°39'1 0.4
2017-Dec-08 23:40N 47°09' W 122°39'2 8.4
2017-Dec-08 23:27N 47°11' W 122°38'4 7.9
2017-Dec-08 23:00N 47°14' W 122°35'4 7.2
2017-Dec-08 22:30N 47°17' W 122°33'3 5.4
2017-Dec-08 22:00N 47°19' W 122°31'6 3.7
2017-Dec-08 20:22N 47°17' W 122°23'1 1.5
2017-Dec-08 19:58N 47°16' W 122°24'1 2.0
2017-Dec-08 19:30N 47°17' W 122°25'3 6.7
2017-Dec-08 19:00N 47°18' W 122°29'3 4.9
2017-Dec-08 18:29N 47°18' W 122°33'4 7.5
2017-Dec-08 17:58N 47°15' W 122°35'3 6.3
2017-Dec-08 17:30N 47°12' W 122°36'4 1.8
2017-Dec-08 15:13N 47°08' W 122°39'1 2.0
2017-Dec-08 14:47N 47°09' W 122°39'2 6.8
2017-Dec-08 14:28N 47°11' W 122°38'511.4
2017-Dec-08 14:00N 47°15' W 122°34'4 8.2
2017-Dec-08 13:29N 47°19' W 122°30'4 8.5
2017-Dec-08 12:59N 47°17' W 122°25'1 1.0
2017-Dec-08 12:30N 47°16' W 122°24'4 8.4
2017-Dec-08 12:00N 47°19' W 122°30'4 7.6
2017-Dec-08 11:30N 47°22' W 122°32'4 8.8
2017-Dec-08 11:00N 47°27' W 122°31'4 8.7
2017-Dec-08 10:30N 47°31' W 122°29'5 9.3
2017-Dec-08 10:00N 47°35' W 122°26'3 6.6
2017-Dec-08 09:30N 47°34' W 122°21'0 0.6
2017-Dec-08 09:00N 47°34' W 122°21'2 4.5
2017-Dec-08 08:30N 47°36' W 122°23'4 7.7
2017-Dec-08 08:00N 47°39' W 122°26'2 3.9
2017-Dec-08 07:30N 47°40' W 122°24'2 3.1
2017-Dec-08 07:00N 47°39' W 122°22'  
Track history (hours):
 
Tides and Currents Weather Stations Pressure Air Temp Water Temp Dewpoint Dewpoint Depression Visibility Wind Speed Wind Dir Waves Ship Positions

Island Chief

Owner: Island Tug and Barge, SEATTLE, WA. More information available from US FCC via Universal Licensing System and Coast Guard Vessel Documentation Center.

Last reported at 2017-Dec-18 07:00 UTC. Time now 2017-Dec-18 07:15 UTC.
Position N 47°34' W 122°21'.

Length 21 m; draft 3 m.

Type: Towing. MMSI: 365798606.

Date/timePositionNaut miles runAvg speedWind from/ knotsBaromVisibWave heightAir tempDewpointWater temp
2017-Dec-18 07:00N 47°34' W 122°21'0 0.0
2017-Dec-18 06:30N 47°34' W 122°21'0 0.0
2017-Dec-18 06:00N 47°34' W 122°21'0 0.0
2017-Dec-18 05:30N 47°34' W 122°21'0 0.0
2017-Dec-18 05:00N 47°34' W 122°21'0 0.0
2017-Dec-18 04:30N 47°34' W 122°21'0 0.0
2017-Dec-18 04:00N 47°34' W 122°21'0 0.0
2017-Dec-18 03:31N 47°34' W 122°21'0 0.0
2017-Dec-18 03:00N 47°34' W 122°21'0 0.0
2017-Dec-18 02:30N 47°34' W 122°21'0 0.0
2017-Dec-18 02:00N 47°34' W 122°21'0 0.0
2017-Dec-18 01:30N 47°34' W 122°21'0 0.0
2017-Dec-18 01:00N 47°34' W 122°21'0 0.0
2017-Dec-18 00:30N 47°34' W 122°21'0 0.0
2017-Dec-18 00:00N 47°34' W 122°21'0 0.0
2017-Dec-17 23:30N 47°34' W 122°21'0 0.0
2017-Dec-17 23:00N 47°34' W 122°21'0 0.0
2017-Dec-17 22:30N 47°34' W 122°21'1 1.9
2017-Dec-17 22:00N 47°35' W 122°22'0 0.5
2017-Dec-17 21:30N 47°35' W 122°22'1 1.8
2017-Dec-17 21:00N 47°34' W 122°21'0 0.0
2017-Dec-17 20:30N 47°34' W 122°21'0 0.0
2017-Dec-17 20:00N 47°34' W 122°21'0 0.0
2017-Dec-17 19:27N 47°34' W 122°21'0 0.0
2017-Dec-17 19:00N 47°34' W 122°21'0 0.0
2017-Dec-17 18:30N 47°34' W 122°21'0 0.0
2017-Dec-17 17:59N 47°34' W 122°21'0 0.0
2017-Dec-17 17:30N 47°34' W 122°21'0 0.0
2017-Dec-17 17:00N 47°34' W 122°21'0 0.0
2017-Dec-17 16:30N 47°34' W 122°21'0 0.0
2017-Dec-17 16:00N 47°34' W 122°21'0 0.0
2017-Dec-17 15:30N 47°34' W 122°21'0 0.0
2017-Dec-17 15:00N 47°34' W 122°21'0 0.0
2017-Dec-17 14:30N 47°34' W 122°21'0 0.0
2017-Dec-17 14:00N 47°34' W 122°21'0 0.0
2017-Dec-17 13:30N 47°34' W 122°21'0 0.0
2017-Dec-17 13:00N 47°34' W 122°21'0 0.0
2017-Dec-17 12:30N 47°34' W 122°21'0 0.0
2017-Dec-17 12:00N 47°34' W 122°21'0 0.0
2017-Dec-17 11:30N 47°34' W 122°21'0 0.0
2017-Dec-17 11:00N 47°34' W 122°21'0 0.0
2017-Dec-17 10:30N 47°34' W 122°21'0 0.0
2017-Dec-17 10:00N 47°34' W 122°21'0 0.0
2017-Dec-17 09:30N 47°34' W 122°21'0 0.0
2017-Dec-17 09:00N 47°34' W 122°21'0 0.0
2017-Dec-17 08:30N 47°34' W 122°21'0 0.0
2017-Dec-17 08:00N 47°34' W 122°21'0 0.0
2017-Dec-17 07:30N 47°34' W 122°21'0 0.0
2017-Dec-17 07:00N 47°34' W 122°21'0 0.0
2017-Dec-17 06:30N 47°34' W 122°21'0 0.0
2017-Dec-17 06:00N 47°34' W 122°21'0 0.0
2017-Dec-17 05:30N 47°34' W 122°21'0 0.0
2017-Dec-17 05:00N 47°34' W 122°21'0 0.0
2017-Dec-17 04:30N 47°34' W 122°21'0 0.0
2017-Dec-17 04:00N 47°34' W 122°21'0 0.0
2017-Dec-17 03:30N 47°34' W 122°21'0 0.0
2017-Dec-17 03:00N 47°34' W 122°21'0 0.0
2017-Dec-17 02:30N 47°34' W 122°21'0 0.0
2017-Dec-17 02:00N 47°34' W 122°21'0 0.0
2017-Dec-17 01:30N 47°34' W 122°21'0 0.0
2017-Dec-17 01:00N 47°34' W 122°21'0 0.0
2017-Dec-17 00:30N 47°34' W 122°21'0 0.0
2017-Dec-16 23:48N 47°34' W 122°21'0 0.0
2017-Dec-16 23:29N 47°34' W 122°21'3 6.6
2017-Dec-16 23:00N 47°32' W 122°19'0 0.8
2017-Dec-16 22:30N 47°32' W 122°19'4 8.4
2017-Dec-16 22:00N 47°36' W 122°21'1 2.9
2017-Dec-16 21:30N 47°34' W 122°21'3 5.7
2017-Dec-16 21:00N 47°32' W 122°19'1 2.9
2017-Dec-16 20:30N 47°31' W 122°18'0 0.0
2017-Dec-16 20:00N 47°31' W 122°18'3 5.3
2017-Dec-16 19:30N 47°33' W 122°20'2 4.9
2017-Dec-16 19:00N 47°35' W 122°22'2 3.9
2017-Dec-16 18:27N 47°33' W 122°21'0 0.0
2017-Dec-16 17:59N 47°33' W 122°21'0 0.2
2017-Dec-16 17:30N 47°33' W 122°21'0 0.0
2017-Dec-16 17:00N 47°33' W 122°21'0 0.0
2017-Dec-16 16:28N 47°33' W 122°21'0 0.0
2017-Dec-16 16:00N 47°33' W 122°21'0 0.0
2017-Dec-16 15:29N 47°33' W 122°21'0 0.0
2017-Dec-16 14:59N 47°33' W 122°21'0 0.0
2017-Dec-16 14:30N 47°33' W 122°21'1 1.0
2017-Dec-16 13:53N 47°34' W 122°21'1 1.5
2017-Dec-16 13:30N 47°34' W 122°21'0 0.0
2017-Dec-16 12:57N 47°34' W 122°21'0 0.0
2017-Dec-16 12:30N 47°34' W 122°21'0 0.0
2017-Dec-16 12:00N 47°34' W 122°21'0 0.0
2017-Dec-16 11:30N 47°34' W 122°21'0 0.0
2017-Dec-16 11:00N 47°34' W 122°21'0 0.0
2017-Dec-16 10:30N 47°34' W 122°21'0 0.0
2017-Dec-16 10:00N 47°34' W 122°21'0 0.0
2017-Dec-16 09:30N 47°34' W 122°21'2 3.5
2017-Dec-16 09:00N 47°33' W 122°20'0 0.2
2017-Dec-16 08:30N 47°33' W 122°20'1 2.3
2017-Dec-16 07:59N 47°34' W 122°21'2 3.8
2017-Dec-16 07:30N 47°35' W 122°22'1 2.4
2017-Dec-16 06:59N 47°34' W 122°21'0 0.0
2017-Dec-16 06:30N 47°34' W 122°21'0 0.0
2017-Dec-16 05:59N 47°34' W 122°21'0 0.3
2017-Dec-16 05:30N 47°34' W 122°21'1 2.9
2017-Dec-16 05:00N 47°36' W 122°23'3 6.8
2017-Dec-16 04:30N 47°38' W 122°26'2 3.8
2017-Dec-16 04:00N 47°40' W 122°24'1 1.2
2017-Dec-16 03:30N 47°40' W 122°23'3 6.0
2017-Dec-16 03:00N 47°39' W 122°19'3 7.0
2017-Dec-16 02:30N 47°41' W 122°15'4 8.3
2017-Dec-16 01:59N 47°45' W 122°16'1 1.1
2017-Dec-16 01:29N 47°45' W 122°15'3 5.0
2017-Dec-16 00:56N 47°43' W 122°16'3 6.3
2017-Dec-16 00:30N 47°40' W 122°15'3 5.6
2017-Dec-16 00:00N 47°39' W 122°19'2 4.6
2017-Dec-15 23:30N 47°40' W 122°22'1 2.5
2017-Dec-15 23:00N 47°40' W 122°24'1 1.3
2017-Dec-15 22:30N 47°40' W 122°25'2 4.4
2017-Dec-15 22:00N 47°39' W 122°27'4 7.3
2017-Dec-15 21:30N 47°35' W 122°26'3 6.8
2017-Dec-15 21:00N 47°32' W 122°27'4 7.3
2017-Dec-15 20:30N 47°29' W 122°30'4 7.5
2017-Dec-15 20:00N 47°25' W 122°32'4 7.5
2017-Dec-15 19:30N 47°21' W 122°32'4 6.8
2017-Dec-15 18:55N 47°17' W 122°32'3 6.4
2017-Dec-15 18:30N 47°15' W 122°35'8 2.6
2017-Dec-15 15:34N 47°08' W 122°39'0 0.0
2017-Dec-15 15:24N 47°08' W 122°39'0 0.0
2017-Dec-15 08:42N 47°08' W 122°39'1 3.4
2017-Dec-15 08:26N 47°09' W 122°39'4 7.8
2017-Dec-15 07:58N 47°12' W 122°36'511.3
2017-Dec-15 07:30N 47°17' W 122°33'5 9.1
2017-Dec-15 07:00N 47°21' W 122°32'4 7.6
2017-Dec-15 06:30N 47°25' W 122°32'4 7.3
2017-Dec-15 06:00N 47°29' W 122°30'3 6.5
2017-Dec-15 05:30N 47°32' W 122°28'4 7.6
2017-Dec-15 05:00N 47°36' W 122°28'4 7.7
2017-Dec-15 04:30N 47°39' W 122°27'2 4.7
2017-Dec-15 04:00N 47°40' W 122°24'6 4.0
2017-Dec-15 02:29N 47°42' W 122°15'2 1.2
2017-Dec-15 00:59N 47°44' W 122°16'3 6.3
2017-Dec-15 00:30N 47°41' W 122°14'29 4.8
2017-Dec-14 18:27N 47°15' W 122°34'7 1.0
2017-Dec-14 10:57N 47°09' W 122°38'3 6.2
2017-Dec-14 10:29N 47°11' W 122°37'5 9.6
2017-Dec-14 10:00N 47°15' W 122°34'5 9.7
2017-Dec-14 09:30N 47°20' W 122°33'4 8.2
2017-Dec-14 09:00N 47°24' W 122°32'4 8.5
2017-Dec-14 08:30N 47°28' W 122°31'4 8.9
2017-Dec-14 08:00N 47°32' W 122°28'5 9.6
2017-Dec-14 07:30N 47°37' W 122°28'4 8.1
2017-Dec-14 07:00N 47°41' W 122°25'2 3.2
2017-Dec-14 06:30N 47°40' W 122°23'4 5.8
2017-Dec-14 05:45N 47°39' W 122°17'2 7.5
2017-Dec-14 05:30N 47°40' W 122°15'4 7.3
2017-Dec-14 05:00N 47°44' W 122°16'2 3.2
2017-Dec-14 04:30N 47°45' W 122°16'0 0.5
2017-Dec-14 04:00N 47°45' W 122°16'3 5.5
2017-Dec-14 03:29N 47°42' W 122°15'3 6.0
2017-Dec-14 03:00N 47°39' W 122°16'3 5.3
2017-Dec-14 02:30N 47°39' W 122°20'2 4.4
2017-Dec-14 02:00N 47°40' W 122°23'0 0.6
2017-Dec-14 01:30N 47°40' W 122°23'0 0.0
2017-Dec-14 01:00N 47°40' W 122°23'0 0.8
2017-Dec-14 00:30N 47°40' W 122°24'1 1.0
2017-Dec-14 00:00N 47°40' W 122°24'1 2.3
2017-Dec-13 23:30N 47°40' W 122°26'3 6.6
2017-Dec-13 23:00N 47°37' W 122°27'3 6.4
2017-Dec-13 22:30N 47°34' W 122°26'3 6.3
2017-Dec-13 22:00N 47°31' W 122°29'3 6.6
2017-Dec-13 21:30N 47°28' W 122°31'3 6.4
2017-Dec-13 21:00N 47°25' W 122°32'3 6.1
2017-Dec-13 20:30N 47°22' W 122°32'3 6.0
2017-Dec-13 20:00N 47°19' W 122°33'2 5.0
2017-Dec-13 19:30N 47°16' W 122°33'8 1.0
2017-Dec-13 11:14N 47°09' W 122°39'2 7.7
2017-Dec-13 11:00N 47°11' W 122°38'4 7.8
2017-Dec-13 10:30N 47°14' W 122°35'4 7.9
2017-Dec-13 09:57N 47°18' W 122°33'4 8.1
2017-Dec-13 09:30N 47°22' W 122°32'4 7.9
2017-Dec-13 09:00N 47°26' W 122°32'4 8.3
2017-Dec-13 08:30N 47°30' W 122°30'4 9.0
2017-Dec-13 08:00N 47°34' W 122°28'5 9.1
2017-Dec-13 07:30N 47°39' W 122°28'3 6.0
2017-Dec-13 07:00N 47°40' W 122°24'1 2.8
2017-Dec-13 06:30N 47°39' W 122°22'2 4.4
2017-Dec-13 06:00N 47°39' W 122°19'3 6.9
2017-Dec-13 05:30N 47°41' W 122°14'4 8.2
2017-Dec-13 05:00N 47°45' W 122°16'0 0.9
2017-Dec-13 04:30N 47°45' W 122°16'0 0.2
2017-Dec-13 04:00N 47°45' W 122°16'3 6.1
2017-Dec-13 03:30N 47°42' W 122°15'3 6.3
2017-Dec-13 03:00N 47°39' W 122°16'2 4.9
2017-Dec-13 02:30N 47°39' W 122°20'2 4.3
2017-Dec-13 02:00N 47°40' W 122°23'1 1.2
2017-Dec-13 01:30N 47°40' W 122°24'0 0.0
2017-Dec-13 01:00N 47°40' W 122°24'0 0.0
2017-Dec-13 00:30N 47°40' W 122°24'0 0.0
2017-Dec-13 00:00N 47°40' W 122°24'0 0.4
2017-Dec-12 23:30N 47°40' W 122°24'0 1.0
2017-Dec-12 23:00N 47°40' W 122°24'2 4.6
2017-Dec-12 22:30N 47°39' W 122°27'4 7.4
2017-Dec-12 22:00N 47°35' W 122°26'3 7.0
2017-Dec-12 21:30N 47°32' W 122°28'4 7.5
2017-Dec-12 21:00N 47°28' W 122°31'4 7.4
2017-Dec-12 20:30N 47°25' W 122°32'4 7.0
2017-Dec-12 20:00N 47°21' W 122°33'3 6.4
2017-Dec-12 19:28N 47°18' W 122°33'3 5.9
2017-Dec-12 19:00N 47°15' W 122°34'8 5.9
2017-Dec-12 17:42N 47°08' W 122°39'0 0.0
2017-Dec-12 17:26N 47°08' W 122°39'0 0.0
2017-Dec-12 15:48N 47°08' W 122°39'0 0.0
2017-Dec-12 13:21N 47°08' W 122°39'1 3.3
2017-Dec-12 13:00N 47°09' W 122°39'4 7.7
2017-Dec-12 12:30N 47°12' W 122°36'3 6.9
2017-Dec-12 12:00N 47°16' W 122°34'3 6.3
2017-Dec-12 11:30N 47°19' W 122°33'4 7.6
2017-Dec-12 11:00N 47°22' W 122°32'4 7.3
2017-Dec-12 10:30N 47°26' W 122°32'4 7.7
2017-Dec-12 10:00N 47°30' W 122°30'4 8.0
2017-Dec-12 09:30N 47°33' W 122°27'4 7.9
2017-Dec-12 09:00N 47°36' W 122°23'2 3.7
2017-Dec-12 08:30N 47°34' W 122°21'1 2.4
2017-Dec-12 08:00N 47°36' W 122°22'4 7.3
2017-Dec-12 07:30N 47°38' W 122°26'2 4.3
2017-Dec-12 07:00N 47°40' W 122°24'2 3.2
2017-Dec-12 06:30N 47°39' W 122°22'3 5.0
2017-Dec-12 06:00N 47°39' W 122°19'3 6.5
2017-Dec-12 05:30N 47°41' W 122°15'4 7.3
2017-Dec-12 05:00N 47°44' W 122°16'1 2.4
2017-Dec-12 04:30N 47°45' W 122°16'0 0.7
2017-Dec-12 04:00N 47°45' W 122°16'3 5.7
2017-Dec-12 03:29N 47°42' W 122°15'3 6.1
2017-Dec-12 03:00N 47°39' W 122°16'2 5.0
2017-Dec-12 02:30N 47°39' W 122°20'2 4.5
2017-Dec-12 02:00N 47°40' W 122°23'1 1.1
2017-Dec-12 01:30N 47°40' W 122°24'0 0.0
2017-Dec-12 01:00N 47°40' W 122°24'0 0.0
2017-Dec-12 00:30N 47°40' W 122°24'1 1.2
2017-Dec-12 00:00N 47°40' W 122°24'2 4.2
2017-Dec-11 23:30N 47°39' W 122°27'3 7.0
2017-Dec-11 23:00N 47°35' W 122°26'3 6.6
2017-Dec-11 22:30N 47°32' W 122°28'4 7.5
2017-Dec-11 22:00N 47°29' W 122°30'4 7.4
2017-Dec-11 21:30N 47°25' W 122°32'4 7.1
2017-Dec-11 21:00N 47°22' W 122°32'4 6.7
2017-Dec-11 20:26N 47°18' W 122°32'3 7.2
2017-Dec-11 20:00N 47°15' W 122°34'3 6.2
2017-Dec-11 19:30N 47°12' W 122°36'4 5.0
2017-Dec-11 18:36N 47°08' W 122°39'0 0.0
2017-Dec-11 18:26N 47°08' W 122°39'0 0.0
2017-Dec-11 17:24N 47°08' W 122°39'0 0.0
2017-Dec-11 16:20N 47°08' W 122°39'0 0.0
2017-Dec-11 16:00N 47°08' W 122°39'0 0.0
2017-Dec-11 15:27N 47°08' W 122°39'1 1.3
2017-Dec-11 14:38N 47°09' W 122°39'1 7.1
2017-Dec-11 14:30N 47°10' W 122°38'4 7.4
2017-Dec-11 14:00N 47°13' W 122°35'4 7.4
2017-Dec-11 13:29N 47°17' W 122°33'3 6.4
2017-Dec-11 13:00N 47°20' W 122°33'3 6.3
2017-Dec-11 12:30N 47°23' W 122°32'3 6.0
2017-Dec-11 12:00N 47°26' W 122°32'3 6.2
2017-Dec-11 11:30N 47°29' W 122°30'3 6.5
2017-Dec-11 11:00N 47°32' W 122°28'3 6.9
2017-Dec-11 10:30N 47°35' W 122°26'2 4.7
2017-Dec-11 10:00N 47°35' W 122°23'1 2.8
2017-Dec-11 09:30N 47°34' W 122°21'0 0.0
2017-Dec-11 09:00N 47°34' W 122°21'0 0.0
2017-Dec-11 08:30N 47°34' W 122°21'0 0.0
2017-Dec-11 08:00N 47°34' W 122°21'0 0.0
2017-Dec-11 07:30N 47°34' W 122°21'0 0.0
2017-Dec-11 07:00N 47°34' W 122°21'0 0.0
2017-Dec-11 06:30N 47°34' W 122°21'0 0.0
2017-Dec-11 06:00N 47°34' W 122°21'0 0.0
2017-Dec-11 05:30N 47°34' W 122°21'0 0.0
2017-Dec-11 05:00N 47°34' W 122°21'0 0.0
2017-Dec-11 04:30N 47°34' W 122°21'0 0.0
2017-Dec-11 04:00N 47°34' W 122°21'0 0.0
2017-Dec-11 03:30N 47°34' W 122°21'0 0.0
2017-Dec-11 03:00N 47°34' W 122°21'0 0.0
2017-Dec-11 02:30N 47°34' W 122°21'0 0.0
2017-Dec-11 02:00N 47°34' W 122°21'0 0.0
2017-Dec-11 01:30N 47°34' W 122°21'0 0.0
2017-Dec-11 01:00N 47°34' W 122°21'0 0.0
2017-Dec-11 00:30N 47°34' W 122°21'0 0.0
2017-Dec-11 00:00N 47°34' W 122°21'0 0.0
2017-Dec-10 23:30N 47°34' W 122°21'0 0.0
2017-Dec-10 23:00N 47°34' W 122°21'0 0.0
2017-Dec-10 22:30N 47°34' W 122°21'0 0.0
2017-Dec-10 22:00N 47°34' W 122°21'0 0.0
2017-Dec-10 21:30N 47°34' W 122°21'0 0.0
2017-Dec-10 21:00N 47°34' W 122°21'0 0.0
2017-Dec-10 20:30N 47°34' W 122°21'0 0.0
2017-Dec-10 20:00N 47°34' W 122°21'0 0.0
2017-Dec-10 19:30N 47°34' W 122°21'0 0.0
2017-Dec-10 18:59N 47°34' W 122°21'0 0.0
2017-Dec-10 18:28N 47°34' W 122°21'0 0.0
2017-Dec-10 18:00N 47°34' W 122°21'0 0.0
2017-Dec-10 17:29N 47°34' W 122°21'0 0.0
2017-Dec-10 17:00N 47°34' W 122°21'0 0.0
2017-Dec-10 16:30N 47°34' W 122°21'0 0.0
2017-Dec-10 16:00N 47°34' W 122°21'0 0.0
2017-Dec-10 15:30N 47°34' W 122°21'0 0.0
2017-Dec-10 15:00N 47°34' W 122°21'0 0.0
2017-Dec-10 14:30N 47°34' W 122°21'0 0.0
2017-Dec-10 14:01N 47°34' W 122°21'0 0.0
2017-Dec-10 13:30N 47°34' W 122°21'0 0.0
2017-Dec-10 13:00N 47°34' W 122°21'0 0.0
2017-Dec-10 12:30N 47°34' W 122°21'0 0.0
2017-Dec-10 12:00N 47°34' W 122°21'0 0.0
2017-Dec-10 11:30N 47°34' W 122°21'0 0.0
2017-Dec-10 11:00N 47°34' W 122°21'0 0.0
2017-Dec-10 10:30N 47°34' W 122°21'0 0.0
2017-Dec-10 10:00N 47°34' W 122°21'0 0.0
2017-Dec-10 09:30N 47°34' W 122°21'0 0.0
2017-Dec-10 09:00N 47°34' W 122°21'0 0.0
2017-Dec-10 08:30N 47°34' W 122°21'0 0.0
2017-Dec-10 08:00N 47°34' W 122°21'0 0.0
2017-Dec-10 07:30N 47°34' W 122°21'0 0.0
2017-Dec-10 07:00N 47°34' W 122°21'0 0.0
2017-Dec-10 06:30N 47°34' W 122°21'0 0.0
2017-Dec-10 06:00N 47°34' W 122°21'0 0.0
2017-Dec-10 05:30N 47°34' W 122°21'0 0.0
2017-Dec-10 05:00N 47°34' W 122°21'0 0.0
2017-Dec-10 04:30N 47°34' W 122°21'0 0.0
2017-Dec-10 04:00N 47°34' W 122°21'1 1.7
2017-Dec-10 03:30N 47°35' W 122°22'4 7.1
2017-Dec-10 03:00N 47°38' W 122°25'2 4.8
2017-Dec-10 02:30N 47°40' W 122°24'1 2.4
2017-Dec-10 02:00N 47°40' W 122°23'3 5.2
2017-Dec-10 01:30N 47°39' W 122°19'3 6.5
2017-Dec-10 01:00N 47°40' W 122°15'4 8.1
2017-Dec-10 00:30N 47°44' W 122°16'1 1.9
2017-Dec-10 00:00N 47°45' W 122°16'0 0.8
2017-Dec-09 23:30N 47°45' W 122°16'3 6.7
2017-Dec-09 22:59N 47°42' W 122°15'3 6.3
2017-Dec-09 22:30N 47°39' W 122°17'3 5.0
2017-Dec-09 22:00N 47°39' W 122°20'3 5.2
2017-Dec-09 21:30N 47°40' W 122°24'1 2.7
2017-Dec-09 21:00N 47°40' W 122°26'3 6.5
2017-Dec-09 20:30N 47°37' W 122°25'3 5.4
2017-Dec-09 20:00N 47°35' W 122°22'1 2.5
2017-Dec-09 19:25N 47°34' W 122°21'0 0.3
2017-Dec-09 19:00N 47°34' W 122°21'1 2.3
2017-Dec-09 18:30N 47°35' W 122°22'1 2.0
2017-Dec-09 18:00N 47°34' W 122°21'3 5.2
2017-Dec-09 17:30N 47°32' W 122°19'1 2.5
2017-Dec-09 17:00N 47°31' W 122°18'0 0.0
2017-Dec-09 16:29N 47°31' W 122°18'0 0.0
2017-Dec-09 16:00N 47°31' W 122°18'0 0.0
2017-Dec-09 15:30N 47°31' W 122°18'0 0.0
2017-Dec-09 15:00N 47°31' W 122°18'0 0.0
2017-Dec-09 14:27N 47°31' W 122°18'0 0.0
2017-Dec-09 14:00N 47°31' W 122°18'0 0.0
2017-Dec-09 13:30N 47°31' W 122°18'0 0.0
2017-Dec-09 13:00N 47°31' W 122°18'1 1.0
2017-Dec-09 12:30N 47°31' W 122°18'3 5.3
2017-Dec-09 12:00N 47°33' W 122°21'0 0.7
2017-Dec-09 11:30N 47°34' W 122°21'0 0.7
2017-Dec-09 11:00N 47°34' W 122°21'0 0.8
2017-Dec-09 10:30N 47°34' W 122°21'0 0.0
2017-Dec-09 10:00N 47°34' W 122°21'0 0.0
2017-Dec-09 09:30N 47°34' W 122°21'0 0.0
2017-Dec-09 09:00N 47°34' W 122°21'0 0.0
2017-Dec-09 08:30N 47°34' W 122°21'1 1.5
2017-Dec-09 08:00N 47°35' W 122°22'1 1.8
2017-Dec-09 07:30N 47°36' W 122°23'3 6.0
2017-Dec-09 07:00N 47°34' W 122°26'4 7.5
2017-Dec-09 06:30N 47°31' W 122°29'4 7.3
2017-Dec-09 06:00N 47°27' W 122°31'4 7.4
2017-Dec-09 05:30N 47°24' W 122°32'4 7.4
2017-Dec-09 05:00N 47°20' W 122°33'3 6.1
2017-Dec-09 04:30N 47°17' W 122°32'4 5.7
2017-Dec-09 03:50N 47°14' W 122°35'4 6.6
2017-Dec-09 03:18N 47°11' W 122°38'3 5.2
2017-Dec-09 02:46N 47°08' W 122°39'0 0.0
2017-Dec-09 02:28N 47°08' W 122°39'0 0.0
2017-Dec-09 02:00N 47°08' W 122°39'1 0.4
2017-Dec-08 23:40N 47°09' W 122°39'2 8.4
2017-Dec-08 23:27N 47°11' W 122°38'4 7.9
2017-Dec-08 23:00N 47°14' W 122°35'4 7.2
2017-Dec-08 22:30N 47°17' W 122°33'3 5.4
2017-Dec-08 22:00N 47°19' W 122°31'6 3.7
2017-Dec-08 20:22N 47°17' W 122°23'1 1.5
2017-Dec-08 19:58N 47°16' W 122°24'1 2.0
2017-Dec-08 19:30N 47°17' W 122°25'3 6.7
2017-Dec-08 19:00N 47°18' W 122°29'3 4.9
2017-Dec-08 18:29N 47°18' W 122°33'4 7.5
2017-Dec-08 17:58N 47°15' W 122°35'3 6.3
2017-Dec-08 17:30N 47°12' W 122°36'4 1.8
2017-Dec-08 15:13N 47°08' W 122°39'1 2.0
2017-Dec-08 14:47N 47°09' W 122°39'2 6.8
2017-Dec-08 14:28N 47°11' W 122°38'511.4
2017-Dec-08 14:00N 47°15' W 122°34'4 8.2
2017-Dec-08 13:29N 47°19' W 122°30'4 8.5
2017-Dec-08 12:59N 47°17' W 122°25'1 1.0
2017-Dec-08 12:30N 47°16' W 122°24'4 8.4
2017-Dec-08 12:00N 47°19' W 122°30'4 7.6
2017-Dec-08 11:30N 47°22' W 122°32'4 8.8
2017-Dec-08 11:00N 47°27' W 122°31'4 8.7
2017-Dec-08 10:30N 47°31' W 122°29'5 9.3
2017-Dec-08 10:00N 47°35' W 122°26'3 6.6
2017-Dec-08 09:30N 47°34' W 122°21'0 0.6
2017-Dec-08 09:00N 47°34' W 122°21'2 4.5
2017-Dec-08 08:30N 47°36' W 122°23'4 7.7
2017-Dec-08 08:00N 47°39' W 122°26'2 3.9
2017-Dec-08 07:30N 47°40' W 122°24'2 3.1
2017-Dec-08 07:00N 47°39' W 122°22'  

Dump ship's entire track history